createdAt,value
2019-01-23T00:02:13.037Z,64.37
2019-01-23T00:04:41.373Z,63.61
2019-01-23T00:07:09.804Z,63.79
2019-01-23T00:09:38.206Z,63.89
2019-01-23T00:12:06.529Z,63.38
2019-01-23T00:14:34.887Z,63.75
2019-01-23T00:17:03.817Z,63.79
2019-01-23T00:19:32.182Z,63.43
2019-01-23T00:22:00.552Z,63.54
2019-01-23T00:24:28.865Z,63.81
2019-01-23T00:26:57.240Z,63.83
2019-01-23T00:29:25.586Z,63.88
2019-01-23T00:31:53.952Z,63.66
2019-01-23T00:34:22.305Z,63.60
2019-01-23T00:36:50.663Z,63.67
2019-01-23T00:39:19.049Z,63.51
2019-01-23T00:41:47.426Z,64.03
2019-01-23T00:44:15.770Z,63.75
2019-01-23T00:46:44.180Z,63.90
2019-01-23T00:49:12.769Z,63.36
2019-01-23T00:51:41.123Z,63.62
2019-01-23T00:54:10.284Z,64.16
2019-01-23T00:56:38.614Z,63.80
2019-01-23T00:59:06.937Z,63.63
2019-01-23T01:01:35.499Z,63.58
2019-01-23T01:04:04.215Z,63.84
2019-01-23T01:06:32.687Z,63.85
2019-01-23T01:09:01.073Z,63.85
2019-01-23T01:11:29.442Z,63.88
2019-01-23T01:13:57.766Z,63.75
2019-01-23T01:16:26.146Z,63.11
2019-01-23T01:18:54.487Z,63.92
2019-01-23T01:21:22.905Z,63.39
2019-01-23T01:23:51.220Z,63.40
2019-01-23T01:26:19.577Z,64.04
2019-01-23T01:28:47.909Z,63.70
2019-01-23T01:31:16.349Z,63.61
2019-01-23T01:33:44.684Z,63.42
2019-01-23T01:36:13.182Z,63.92
2019-01-23T01:38:41.703Z,63.55
2019-01-23T01:41:10.444Z,63.39
2019-01-23T01:43:38.768Z,63.34
2019-01-23T01:46:07.097Z,63.67
2019-01-23T01:48:35.531Z,63.52
2019-01-23T01:51:03.952Z,63.04
2019-01-23T01:53:32.292Z,63.02
2019-01-23T01:56:00.629Z,62.86
2019-01-23T01:58:28.978Z,63.14
2019-01-23T02:00:57.296Z,62.51
2019-01-23T02:03:25.669Z,63.24
2019-01-23T02:05:53.990Z,62.97
2019-01-23T02:08:22.356Z,62.41
2019-01-23T02:10:50.741Z,62.12
2019-01-23T02:13:19.172Z,62.06
2019-01-23T02:15:47.522Z,62.76
2019-01-23T02:18:15.890Z,62.81
2019-01-23T02:20:44.340Z,62.70
2019-01-23T02:23:12.796Z,62.57
2019-01-23T02:25:41.263Z,62.40
2019-01-23T02:28:10.135Z,62.35
2019-01-23T02:30:38.470Z,62.46
2019-01-23T02:33:06.824Z,62.44
2019-01-23T02:35:35.157Z,62.16
2019-01-23T02:38:03.573Z,61.89
2019-01-23T02:40:31.902Z,61.87
2019-01-23T02:43:00.231Z,62.39
2019-01-23T02:45:28.557Z,61.79
2019-01-23T02:47:56.898Z,62.53
2019-01-23T02:50:25.282Z,61.83
2019-01-23T02:52:53.645Z,62.14
2019-01-23T02:55:22.031Z,62.39
2019-01-23T02:57:50.496Z,62.23
2019-01-23T03:00:19.237Z,61.85
2019-01-23T03:02:47.984Z,61.66
2019-01-23T03:05:17.085Z,61.38
2019-01-23T03:07:45.444Z,61.35
2019-01-23T03:10:17.525Z,62.15
2019-01-23T03:12:46.006Z,62.24
2019-01-23T03:15:15.853Z,62.14
2019-01-23T03:17:44.181Z,62.38
2019-01-23T03:20:15.242Z,62.04
2019-01-23T03:22:43.722Z,61.98
2019-01-23T03:25:14.491Z,62.41
2019-01-23T03:27:42.894Z,62.32
2019-01-23T03:30:14.128Z,62.30
2019-01-23T03:32:42.546Z,62.12
2019-01-23T03:35:11.362Z,61.96
2019-01-23T03:37:40.103Z,61.72
2019-01-23T03:40:12.073Z,61.87
2019-01-23T03:42:40.441Z,61.90
2019-01-23T03:45:11.234Z,61.96
2019-01-23T03:47:39.639Z,61.79
2019-01-23T03:50:10.441Z,61.70
2019-01-23T03:52:38.824Z,61.22
2019-01-23T03:55:08.138Z,61.55
2019-01-23T03:57:36.470Z,61.18
2019-01-23T04:00:07.363Z,61.31
2019-01-23T04:02:35.707Z,61.39
2019-01-23T04:05:07.088Z,61.32
2019-01-23T04:07:35.430Z,60.98
2019-01-23T04:10:07.826Z,60.97
2019-01-23T04:12:36.242Z,60.76
2019-01-23T04:15:05.893Z,60.22
2019-01-23T04:17:34.237Z,60.67
2019-01-23T04:20:03.924Z,60.47
2019-01-23T04:22:32.673Z,60.73
2019-01-23T04:25:01.014Z,60.97
2019-01-23T04:27:29.356Z,60.61
2019-01-23T04:29:57.692Z,60.64
2019-01-23T04:32:26.029Z,60.81
2019-01-23T04:34:54.392Z,60.69
2019-01-23T04:37:22.775Z,60.56
2019-01-23T04:39:51.765Z,60.02
2019-01-23T04:42:20.229Z,59.90
2019-01-23T04:44:48.605Z,59.88
2019-01-23T04:47:17.031Z,60.37
2019-01-23T04:49:45.378Z,60.71
2019-01-23T04:52:15.818Z,60.73
2019-01-23T04:54:44.151Z,61.36
2019-01-23T04:57:12.746Z,61.51
2019-01-23T04:59:46.808Z,61.44
2019-01-23T05:02:12.090Z,61.39
2019-01-23T05:04:40.418Z,61.58
2019-01-23T05:07:08.747Z,61.77
2019-01-23T05:09:37.089Z,61.68
2019-01-23T05:12:05.425Z,61.30
2019-01-23T05:14:33.758Z,61.75
2019-01-23T05:17:02.090Z,62.00
2019-01-23T05:19:30.443Z,62.53
2019-01-23T05:21:58.805Z,62.24
2019-01-23T05:24:27.141Z,62.35
2019-01-23T05:26:55.520Z,62.88
2019-01-23T05:29:23.838Z,62.69
2019-01-23T05:31:52.169Z,62.21
2019-01-23T05:34:20.507Z,62.28
2019-01-23T05:36:48.866Z,62.61
2019-01-23T05:39:17.199Z,63.04
2019-01-23T05:41:45.603Z,62.92
2019-01-23T05:44:14.153Z,62.76
2019-01-23T05:46:42.505Z,62.52
2019-01-23T05:49:11.337Z,62.85
2019-01-23T05:51:39.672Z,62.46
2019-01-23T05:54:08.017Z,62.27
2019-01-23T05:56:36.370Z,62.59
2019-01-23T05:59:04.846Z,62.95
2019-01-23T06:01:33.256Z,62.64
2019-01-23T06:04:01.548Z,62.39
2019-01-23T06:06:29.908Z,63.06
2019-01-23T06:08:58.262Z,62.74
2019-01-23T06:11:26.625Z,63.02
2019-01-23T06:13:55.029Z,63.02
2019-01-23T06:16:23.344Z,63.07
2019-01-23T06:18:51.816Z,62.72
2019-01-23T06:21:20.214Z,62.85
2019-01-23T06:23:49.222Z,63.24
2019-01-23T06:26:17.548Z,63.03
2019-01-23T06:29:12.785Z,63.28
2019-01-23T06:31:41.220Z,63.26
2019-01-23T06:34:09.703Z,62.71
2019-01-23T06:36:38.025Z,63.25
2019-01-23T06:39:07.402Z,63.40
2019-01-23T06:41:35.804Z,63.49
2019-01-23T06:44:04.159Z,63.15
2019-01-23T06:46:32.523Z,62.71
2019-01-23T06:49:00.837Z,62.73
2019-01-23T06:51:29.181Z,63.32
2019-01-23T06:53:57.509Z,62.96
2019-01-23T06:56:25.896Z,62.77
2019-01-23T06:58:54.254Z,62.26
2019-01-23T07:01:22.677Z,62.36
2019-01-23T07:03:51.025Z,61.88
2019-01-23T07:06:19.383Z,62.15
2019-01-23T07:08:47.717Z,62.09
2019-01-23T07:11:16.055Z,62.00
2019-01-23T07:13:44.432Z,62.06
2019-01-23T07:16:12.817Z,62.69
2019-01-23T07:18:41.141Z,61.97
2019-01-23T07:21:09.599Z,61.53
2019-01-23T07:23:37.961Z,60.72
2019-01-23T07:26:06.395Z,61.34
2019-01-23T07:28:34.716Z,61.50
2019-01-23T07:31:03.048Z,61.64
2019-01-23T07:33:31.778Z,61.19
2019-01-23T07:36:00.174Z,61.39
2019-01-23T07:38:28.506Z,61.54
2019-01-23T07:40:56.848Z,61.76
2019-01-23T07:43:25.202Z,61.28
2019-01-23T07:45:53.532Z,61.53
2019-01-23T07:48:21.888Z,61.54
2019-01-23T07:50:50.230Z,61.46
2019-01-23T07:53:18.647Z,60.46
2019-01-23T07:55:47.125Z,61.46
2019-01-23T07:58:15.588Z,61.20
2019-01-23T08:00:44.043Z,61.21
2019-01-23T08:03:12.475Z,61.44
2019-01-23T08:05:42.042Z,60.90
2019-01-23T08:08:11.057Z,61.42
2019-01-23T08:10:40.041Z,60.90
2019-01-23T08:13:08.674Z,60.49
2019-01-23T08:15:37.105Z,60.62
2019-01-23T08:18:06.094Z,61.53
2019-01-23T08:20:34.457Z,60.94
2019-01-23T08:23:02.863Z,60.28
2019-01-23T08:25:31.241Z,61.23
2019-01-23T08:27:59.906Z,61.43
2019-01-23T08:30:28.467Z,61.28
2019-01-23T08:32:56.880Z,60.90
2019-01-23T08:35:25.687Z,60.85
2019-01-23T08:37:54.194Z,60.01
2019-01-23T08:40:22.765Z,60.74
2019-01-23T08:42:51.308Z,60.44
2019-01-23T08:45:19.745Z,61.20
2019-01-23T08:47:48.169Z,60.85
2019-01-23T08:50:20.738Z,60.91
2019-01-23T08:52:49.596Z,60.84
2019-01-23T08:55:18.769Z,60.30
2019-01-23T08:57:47.173Z,60.26
2019-01-23T09:00:17.364Z,60.64
2019-01-23T09:02:45.969Z,60.63
2019-01-23T09:05:14.507Z,60.65
2019-01-23T09:07:42.933Z,59.53
2019-01-23T09:10:16.683Z,59.89
2019-01-23T09:12:45.055Z,59.79
2019-01-23T09:15:15.330Z,59.90
2019-01-23T09:17:43.800Z,59.17
2019-01-23T09:20:13.958Z,59.51
2019-01-23T09:22:42.375Z,60.02
2019-01-23T09:25:14.244Z,59.89
2019-01-23T09:27:42.716Z,60.46
2019-01-23T09:30:16.012Z,60.42
2019-01-23T09:32:48.899Z,60.46
2019-01-23T09:35:20.735Z,60.40
2019-01-23T09:37:55.484Z,60.87
2019-01-23T09:40:29.445Z,60.26
2019-01-23T09:43:02.334Z,59.62
2019-01-23T09:45:37.257Z,60.20
2019-01-23T09:48:10.940Z,60.20
2019-01-23T09:50:47.677Z,60.12
2019-01-23T09:53:18.603Z,60.04
2019-01-23T09:55:47.015Z,60.48
2019-01-23T09:58:15.349Z,60.69
2019-01-23T10:00:43.688Z,60.26
2019-01-23T10:03:12.037Z,59.84
2019-01-23T10:05:40.452Z,60.66
2019-01-23T10:08:09.230Z,60.29
2019-01-23T10:10:37.782Z,60.24
2019-01-23T10:13:06.345Z,59.88
2019-01-23T10:15:39.306Z,60.48
2019-01-23T10:18:07.936Z,59.81
2019-01-23T10:20:36.338Z,59.42
2019-01-23T10:23:04.831Z,60.18
2019-01-23T10:25:33.257Z,59.73
2019-01-23T10:28:01.583Z,60.15
2019-01-23T10:30:29.975Z,60.30
2019-01-23T10:32:58.400Z,60.56
2019-01-23T10:35:26.817Z,59.92
2019-01-23T10:37:55.178Z,60.61
2019-01-23T10:40:23.662Z,60.26
2019-01-23T10:42:52.165Z,59.83
2019-01-23T10:45:20.626Z,59.30
2019-01-23T10:47:55.898Z,59.57
2019-01-23T10:50:19.660Z,59.58
2019-01-23T10:52:48.081Z,60.30
2019-01-23T10:55:16.399Z,59.83
2019-01-23T10:57:44.956Z,59.58
2019-01-23T11:00:17.546Z,58.15
2019-01-23T11:02:46.035Z,59.43
2019-01-23T11:05:18.133Z,59.23
2019-01-23T11:07:46.569Z,59.90
2019-01-23T11:10:17.239Z,59.82
2019-01-23T11:12:45.600Z,59.74
2019-01-23T11:15:14.352Z,59.73
2019-01-23T11:17:42.925Z,59.66
2019-01-23T11:20:14.097Z,59.99
2019-01-23T11:22:42.579Z,60.11
2019-01-23T11:25:12.087Z,59.38
2019-01-23T11:27:40.604Z,60.14
2019-01-23T11:30:12.722Z,59.79
2019-01-23T11:32:41.171Z,59.86
2019-01-23T11:35:09.991Z,58.93
2019-01-23T11:37:38.348Z,59.85
2019-01-23T11:40:13.250Z,59.72
2019-01-23T11:42:41.697Z,59.33
2019-01-23T11:45:11.822Z,59.10
2019-01-23T11:47:40.483Z,58.31
2019-01-23T11:50:12.949Z,58.81
2019-01-23T11:52:41.334Z,58.35
2019-01-23T11:55:10.197Z,58.37
2019-01-23T11:57:38.533Z,59.08
2019-01-23T12:00:11.368Z,58.89
2019-01-23T12:02:39.719Z,59.00
2019-01-23T12:05:11.054Z,58.48
2019-01-23T12:07:39.528Z,58.98
2019-01-23T12:10:12.080Z,59.96
2019-01-23T12:12:40.561Z,60.21
2019-01-23T12:15:10.485Z,60.28
2019-01-23T12:17:39.596Z,60.33
2019-01-23T12:20:09.842Z,60.02
2019-01-23T12:22:38.436Z,58.76
2019-01-23T12:25:09.859Z,58.87
2019-01-23T12:27:38.445Z,59.91
2019-01-23T12:30:09.407Z,59.27
2019-01-23T12:32:37.734Z,59.97
2019-01-23T12:35:07.537Z,59.76
2019-01-23T12:37:35.942Z,59.83
2019-01-23T12:40:09.148Z,59.28
2019-01-23T12:42:37.558Z,60.07
2019-01-23T12:45:09.941Z,60.73
2019-01-23T12:47:38.307Z,60.20
2019-01-23T12:50:10.533Z,60.23
2019-01-23T12:52:38.867Z,60.47
2019-01-23T12:55:09.339Z,60.71
2019-01-23T12:57:37.737Z,60.76
2019-01-23T13:00:09.150Z,60.22
2019-01-23T13:02:37.465Z,59.92
2019-01-23T13:05:09.309Z,60.50
2019-01-23T13:07:37.702Z,59.88
2019-01-23T13:10:11.181Z,59.78
2019-01-23T13:12:39.579Z,59.50
2019-01-23T13:15:11.749Z,59.59
2019-01-23T13:17:41.088Z,59.17
2019-01-23T13:20:13.981Z,59.70
2019-01-23T13:22:42.399Z,59.94
2019-01-23T13:25:14.680Z,58.94
2019-01-23T13:27:43.261Z,59.68
2019-01-23T13:30:14.347Z,60.26
2019-01-23T13:32:42.837Z,60.44
2019-01-23T13:35:15.184Z,60.29
2019-01-23T13:37:43.593Z,59.84
2019-01-23T13:40:17.836Z,59.78
2019-01-23T13:42:46.362Z,59.19
2019-01-23T13:45:14.807Z,59.68
2019-01-23T13:47:43.983Z,59.66
2019-01-23T13:50:13.493Z,59.38
2019-01-23T13:52:43.394Z,58.40
2019-01-23T13:55:15.563Z,58.24
2019-01-23T13:57:44.045Z,58.60
2019-01-23T14:00:18.404Z,58.13
2019-01-23T14:02:46.882Z,58.74
2019-01-23T14:05:15.458Z,58.25
2019-01-23T14:07:43.828Z,58.39
2019-01-23T14:10:14.674Z,59.00
2019-01-23T14:12:44.799Z,59.57
2019-01-23T14:15:20.672Z,59.47
2019-01-23T14:17:49.089Z,59.40
2019-01-23T14:20:17.633Z,59.47
2019-01-23T14:22:46.089Z,59.29
2019-01-23T14:25:16.298Z,59.22
2019-01-23T14:27:45.085Z,59.02
2019-01-23T14:30:18.122Z,59.42
2019-01-23T14:32:46.559Z,59.49
2019-01-23T14:35:15.135Z,58.83
2019-01-23T14:37:43.557Z,59.32
2019-01-23T14:40:12.241Z,59.61
2019-01-23T14:42:40.672Z,60.33
2019-01-23T14:45:11.525Z,60.08
2019-01-23T14:47:39.861Z,59.37
2019-01-23T14:50:11.451Z,60.65
2019-01-23T14:52:40.231Z,59.84
2019-01-23T14:55:09.698Z,59.19
2019-01-23T14:57:38.165Z,59.78
2019-01-23T15:00:10.915Z,59.44
2019-01-23T15:02:39.262Z,59.23
2019-01-23T15:05:08.226Z,59.96
2019-01-23T15:07:36.553Z,60.51
2019-01-23T15:10:09.267Z,61.17
2019-01-23T15:12:37.573Z,61.78
2019-01-23T15:15:07.763Z,61.00
2019-01-23T15:17:36.097Z,60.44
2019-01-23T15:20:10.223Z,60.84
2019-01-23T15:22:39.458Z,59.94
2019-01-23T15:25:09.756Z,59.51
2019-01-23T15:27:38.094Z,59.75
2019-01-23T15:30:10.392Z,59.59
2019-01-23T15:32:38.754Z,60.10
2019-01-23T15:35:10.222Z,60.78
2019-01-23T15:37:38.615Z,60.94
2019-01-23T15:40:11.419Z,61.01
2019-01-23T15:42:39.779Z,60.71
2019-01-23T15:45:10.100Z,60.93
2019-01-23T15:47:38.576Z,60.38
2019-01-23T15:50:10.258Z,60.32
2019-01-23T15:52:38.619Z,60.33
2019-01-23T15:55:10.675Z,60.33
2019-01-23T15:57:39.131Z,59.70
2019-01-23T16:00:14.299Z,60.60
2019-01-23T16:02:42.711Z,60.58
2019-01-23T16:05:12.398Z,59.25
2019-01-23T16:07:40.831Z,60.15
2019-01-23T16:10:12.750Z,60.26
2019-01-23T16:12:41.111Z,60.88
2019-01-23T16:15:10.902Z,60.79
2019-01-23T16:17:39.325Z,60.78
2019-01-23T16:20:10.561Z,60.93
2019-01-23T16:22:39.322Z,60.90
2019-01-23T16:25:11.694Z,60.66
2019-01-23T16:27:40.113Z,60.78
2019-01-23T16:30:13.934Z,60.53
2019-01-23T16:32:42.282Z,60.49
2019-01-23T16:35:10.742Z,61.08
2019-01-23T16:37:39.093Z,61.14
2019-01-23T16:40:08.966Z,61.05
2019-01-23T16:42:37.792Z,61.17
2019-01-23T16:45:10.023Z,61.07
2019-01-23T16:47:38.992Z,60.87
2019-01-23T16:50:12.412Z,60.07
2019-01-23T16:52:41.023Z,60.11
2019-01-23T16:55:10.934Z,59.42
2019-01-23T16:57:39.390Z,59.70
2019-01-23T17:00:11.848Z,60.26
2019-01-23T17:02:40.263Z,60.43
2019-01-23T17:05:13.866Z,59.71
2019-01-23T17:07:42.339Z,60.30
2019-01-23T17:10:15.213Z,59.51
2019-01-23T17:12:44.056Z,59.67
2019-01-23T17:15:14.365Z,58.76
2019-01-23T17:17:42.804Z,59.29
2019-01-23T17:20:15.895Z,59.66
2019-01-23T17:22:44.306Z,59.36
2019-01-23T17:25:14.288Z,59.48
2019-01-23T17:27:42.785Z,59.96
2019-01-23T17:30:15.604Z,59.59
2019-01-23T17:32:45.755Z,59.69
2019-01-23T17:35:18.234Z,59.44
2019-01-23T17:37:46.983Z,59.78
2019-01-23T17:40:18.818Z,59.18
2019-01-23T17:42:47.537Z,58.65
2019-01-23T17:45:20.381Z,58.53
2019-01-23T17:47:49.217Z,58.43
2019-01-23T17:50:20.388Z,57.67
2019-01-23T17:52:48.918Z,58.98
2019-01-23T17:55:23.225Z,59.10
2019-01-23T17:57:51.818Z,59.45
2019-01-23T18:00:27.298Z,59.89
2019-01-23T18:02:57.055Z,59.86
2019-01-23T18:05:26.000Z,60.08
2019-01-23T18:07:55.489Z,59.79
2019-01-23T18:10:24.380Z,59.21
2019-01-23T18:12:53.151Z,59.21
2019-01-23T18:15:24.391Z,59.08
2019-01-23T18:17:54.542Z,58.92
2019-01-23T18:20:25.838Z,58.97
2019-01-23T18:22:54.245Z,58.98
2019-01-23T18:25:23.882Z,59.66
2019-01-23T18:27:52.680Z,59.29
2019-01-23T18:30:23.493Z,60.07
2019-01-23T18:32:59.664Z,59.87
2019-01-23T18:35:30.460Z,59.71
2019-01-23T18:38:03.377Z,60.23
2019-01-23T18:40:37.089Z,60.76
2019-01-23T18:43:10.109Z,59.99
2019-01-23T18:45:42.613Z,60.27
2019-01-23T18:48:15.869Z,60.21
2019-01-23T18:50:49.569Z,60.80
2019-01-23T18:53:18.098Z,60.53
2019-01-23T18:55:46.556Z,59.87
2019-01-23T18:58:15.087Z,60.23
2019-01-23T19:00:43.574Z,60.32
2019-01-23T19:03:12.144Z,59.55
2019-01-23T19:05:40.559Z,60.02
2019-01-23T19:08:09.593Z,58.90
2019-01-23T19:10:37.955Z,58.73
2019-01-23T19:13:07.946Z,59.57
2019-01-23T19:15:36.362Z,59.73
2019-01-23T19:18:05.024Z,59.93
2019-01-23T19:20:33.447Z,60.41
2019-01-23T19:23:01.758Z,60.24
2019-01-23T19:25:30.256Z,60.21
2019-01-23T19:27:58.625Z,59.49
2019-01-23T19:30:27.041Z,59.63
2019-01-23T19:32:55.400Z,60.00
2019-01-23T19:35:23.888Z,59.95
2019-01-23T19:37:52.250Z,60.54
2019-01-23T19:40:20.591Z,60.33
2019-01-23T19:42:48.969Z,60.58
2019-01-23T19:45:19.913Z,60.39
2019-01-23T19:47:48.328Z,60.70
2019-01-23T19:50:16.915Z,60.50
2019-01-23T19:52:45.381Z,60.40
2019-01-23T19:55:16.224Z,60.10
2019-01-23T19:57:44.796Z,60.18
2019-01-23T20:00:17.414Z,60.19
2019-01-23T20:02:45.810Z,59.56
2019-01-23T20:05:17.255Z,59.72
2019-01-23T20:07:45.608Z,59.35
2019-01-23T20:10:17.227Z,59.24
2019-01-23T20:12:46.084Z,59.59
2019-01-23T20:15:17.473Z,59.34
2019-01-23T20:17:45.862Z,59.09
2019-01-23T20:20:15.577Z,58.93
2019-01-23T20:22:44.263Z,58.95
2019-01-23T20:25:14.992Z,58.62
2019-01-23T20:27:43.526Z,58.29
2019-01-23T20:30:17.370Z,57.97
2019-01-23T20:32:46.692Z,58.37
2019-01-23T20:35:15.305Z,58.29
2019-01-23T20:37:43.902Z,58.20
2019-01-23T20:40:13.640Z,58.28
2019-01-23T20:42:42.448Z,58.11
2019-01-23T20:45:15.120Z,58.88
2019-01-23T20:47:43.445Z,58.71
2019-01-23T20:50:18.897Z,58.61
2019-01-23T20:52:47.445Z,58.55
2019-01-23T20:55:15.947Z,58.47
2019-01-23T20:57:44.411Z,58.62
2019-01-23T21:00:18.291Z,58.27
2019-01-23T21:02:47.001Z,57.59
2019-01-23T21:05:15.710Z,58.28
2019-01-23T21:07:44.516Z,58.24
2019-01-23T21:10:16.008Z,57.28
2019-01-23T21:12:44.531Z,57.92
2019-01-23T21:15:15.993Z,58.12
2019-01-23T21:17:44.409Z,58.40
2019-01-23T21:20:13.276Z,58.50
2019-01-23T21:22:41.614Z,58.33
2019-01-23T21:25:12.403Z,58.54
2019-01-23T21:27:42.064Z,58.30
2019-01-23T21:30:15.827Z,57.96
2019-01-23T21:32:44.188Z,58.34
2019-01-23T21:35:13.771Z,57.65
2019-01-23T21:37:42.262Z,58.15
2019-01-23T21:40:14.877Z,57.67
2019-01-23T21:42:43.239Z,57.75
2019-01-23T21:45:13.486Z,57.98
2019-01-23T21:47:42.317Z,58.34
2019-01-23T21:50:15.181Z,57.68
2019-01-23T21:52:44.336Z,57.94
2019-01-23T21:55:16.277Z,57.58
2019-01-23T21:57:44.970Z,58.04
2019-01-23T22:00:16.263Z,58.36
2019-01-23T22:02:44.621Z,58.43
2019-01-23T22:05:14.457Z,58.00
2019-01-23T22:07:44.028Z,58.23
2019-01-23T22:10:15.470Z,58.02
2019-01-23T22:12:43.972Z,58.59
2019-01-23T22:15:15.687Z,57.64
2019-01-23T22:17:44.682Z,56.51
2019-01-23T22:20:16.854Z,56.48
2019-01-23T22:22:45.437Z,57.09
2019-01-23T22:25:16.584Z,57.57
2019-01-23T22:27:44.974Z,57.17
2019-01-23T22:30:17.340Z,57.69
2019-01-23T22:32:48.720Z,57.76
2019-01-23T22:35:17.483Z,57.23
2019-01-23T22:37:46.037Z,57.00
2019-01-23T22:40:17.341Z,56.81
2019-01-23T22:42:45.766Z,56.80
2019-01-23T22:45:17.180Z,56.85
2019-01-23T22:47:45.747Z,56.95
2019-01-23T22:50:16.740Z,56.62
2019-01-23T22:52:45.337Z,55.81
2019-01-23T22:55:14.507Z,56.67
2019-01-23T22:57:42.919Z,56.40
2019-01-23T23:00:17.557Z,56.15
2019-01-23T23:02:46.107Z,56.11
2019-01-23T23:05:14.906Z,56.09
2019-01-23T23:07:43.331Z,56.26
2019-01-23T23:10:12.397Z,56.46
2019-01-23T23:12:40.808Z,57.70
2019-01-23T23:15:11.308Z,57.01
2019-01-23T23:17:39.658Z,56.79
2019-01-23T23:20:11.417Z,56.68
2019-01-23T23:22:39.790Z,57.10
2019-01-23T23:25:09.041Z,56.80
2019-01-23T23:27:39.548Z,56.96
2019-01-23T23:30:13.853Z,57.77
2019-01-23T23:32:43.099Z,57.30
2019-01-23T23:35:12.089Z,58.10
2019-01-23T23:37:40.434Z,59.70
2019-01-23T23:40:12.731Z,59.99
2019-01-23T23:42:41.794Z,60.58
2019-01-23T23:45:13.900Z,60.31
2019-01-23T23:47:42.580Z,60.24
2019-01-23T23:50:13.746Z,61.41
2019-01-23T23:52:42.099Z,61.05
2019-01-23T23:55:13.117Z,61.30
2019-01-23T23:57:41.619Z,60.62
